Terminal Aerodrome Forecast
Issued by NWS Jackson, MS

Current Version | Previous Version | Text Only | Print | Product List | Glossary On
Versions: 1 2 3 4 5 6 7 8 9 10 11 12
920
FTUS44 KJAN 130520
TAFGLH
TAF
KGLH 130520Z 1306/1406 03013KT P6SM SKC
     FM131500 04013G20KT P6SM SKC
     FM132000 05009KT P6SM SKC=

USA.gov is the U.S. government's official web portal to all federal, state and local government web resources and services.